createdAt,value
2023-03-21T00:00:35.675Z,997.60
2023-03-21T00:01:35.806Z,997.64
2023-03-21T00:02:35.963Z,997.64
2023-03-21T00:03:36.131Z,997.70
2023-03-21T00:04:50.512Z,997.67
2023-03-21T00:05:36.810Z,997.73
2023-03-21T00:06:35.488Z,997.73
2023-03-21T00:07:35.434Z,997.74
2023-03-21T00:08:35.392Z,997.73
2023-03-21T00:09:35.336Z,997.75
2023-03-21T00:10:41.131Z,997.76
2023-03-21T00:11:35.344Z,997.81
2023-03-21T00:12:35.266Z,997.80
2023-03-21T00:13:35.235Z,997.82
2023-03-21T00:14:35.235Z,997.79
2023-03-21T00:15:44.358Z,997.78
2023-03-21T00:16:35.477Z,997.81
2023-03-21T00:17:35.157Z,997.85
2023-03-21T00:18:35.203Z,997.86
2023-03-21T00:19:35.340Z,997.86
2023-03-21T00:20:35.483Z,997.89
2023-03-21T00:21:46.606Z,997.91
2023-03-21T00:22:35.774Z,997.90
2023-03-21T00:23:35.958Z,997.92
2023-03-21T00:24:34.985Z,997.90
2023-03-21T00:25:34.995Z,997.93
2023-03-21T00:26:34.927Z,997.99
2023-03-21T00:27:53.407Z,998.02
2023-03-21T00:28:34.888Z,998.00
2023-03-21T00:29:34.891Z,998.04
2023-03-21T00:30:34.837Z,998.06
2023-03-21T00:31:34.782Z,998.05
2023-03-21T00:32:39.752Z,998.06
2023-03-21T00:33:34.751Z,998.06
2023-03-21T00:34:43.080Z,998.09
2023-03-21T00:35:57.805Z,998.02
2023-03-21T00:36:34.756Z,998.09
2023-03-21T00:37:34.831Z,998.10
2023-03-21T00:38:34.933Z,998.16
2023-03-21T00:39:35.036Z,998.14
2023-03-21T00:40:40.623Z,998.17
2023-03-21T00:41:42.573Z,998.09
2023-03-21T00:42:35.463Z,998.15
2023-03-21T00:43:34.529Z,998.12
2023-03-21T00:44:34.453Z,998.12
2023-03-21T00:45:34.480Z,998.12
2023-03-21T00:46:43.977Z,998.17
2023-03-21T00:47:34.419Z,998.15
2023-03-21T00:48:34.449Z,998.09
2023-03-21T00:49:34.389Z,998.13
2023-03-21T00:50:34.320Z,998.11
2023-03-21T00:51:34.289Z,998.11
2023-03-21T00:52:40.622Z,998.13
2023-03-21T00:53:34.302Z,998.15
2023-03-21T00:54:34.225Z,998.15
2023-03-21T00:55:34.280Z,998.11
2023-03-21T00:56:34.239Z,998.11
2023-03-21T00:57:39.269Z,998.15
2023-03-21T00:58:34.516Z,998.19
2023-03-21T00:59:34.637Z,998.20
2023-03-21T01:00:34.793Z,998.17
2023-03-21T01:01:34.978Z,998.22
2023-03-21T01:02:35.011Z,998.22
2023-03-21T01:03:33.989Z,998.19
2023-03-21T01:04:34.033Z,998.21
2023-03-21T01:05:33.983Z,998.21
2023-03-21T01:06:33.957Z,998.22
2023-03-21T01:07:33.874Z,998.24
2023-03-21T01:08:48.627Z,998.24
2023-03-21T01:09:33.904Z,998.21
2023-03-21T01:10:33.817Z,998.18
2023-03-21T01:11:33.804Z,998.20
2023-03-21T01:12:33.794Z,998.20
2023-03-21T01:13:36.400Z,998.22
2023-03-21T01:14:33.714Z,998.22
2023-03-21T01:15:33.725Z,998.19
2023-03-21T01:16:33.978Z,998.21
2023-03-21T01:17:34.042Z,998.20
2023-03-21T01:18:34.129Z,998.15
2023-03-21T01:19:50.207Z,998.18
2023-03-21T01:20:34.421Z,998.20
2023-03-21T01:21:33.524Z,998.21
2023-03-21T01:22:33.549Z,998.20
2023-03-21T01:23:33.480Z,998.20
2023-03-21T01:24:35.577Z,998.20
2023-03-21T01:25:33.447Z,998.23
2023-03-21T01:26:33.407Z,998.20
2023-03-21T01:27:33.398Z,998.18
2023-03-21T01:28:33.380Z,998.23
2023-03-21T01:29:33.329Z,998.25
2023-03-21T01:30:37.012Z,998.22
2023-03-21T01:31:33.322Z,998.24
2023-03-21T01:32:33.299Z,998.25
2023-03-21T01:33:33.226Z,998.19
2023-03-21T01:34:33.276Z,998.23
2023-03-21T01:35:40.942Z,998.24
2023-03-21T01:36:33.599Z,998.23
2023-03-21T01:37:33.663Z,998.23
2023-03-21T01:38:33.795Z,998.28
2023-03-21T01:39:33.930Z,998.27
2023-03-21T01:40:34.085Z,998.24
2023-03-21T01:41:42.538Z,998.26
2023-03-21T01:42:32.991Z,998.32
2023-03-21T01:43:32.987Z,998.33
2023-03-21T01:44:32.979Z,998.34
2023-03-21T01:45:32.936Z,998.34
2023-03-21T01:46:45.407Z,998.37
2023-03-21T01:49:30.200Z,998.30
2023-03-21T01:50:30.452Z,998.30
2023-03-21T01:52:39.350Z,998.28
2023-03-21T01:53:33.122Z,998.27
2023-03-21T01:55:37.116Z,998.32
2023-03-21T01:56:37.605Z,998.30
2023-03-21T01:58:38.833Z,998.32
2023-03-21T01:59:40.261Z,998.36
2023-03-21T02:01:37.681Z,998.34
2023-03-21T02:02:36.607Z,998.36
2023-03-21T02:04:38.927Z,998.42
2023-03-21T02:05:39.393Z,998.40
2023-03-21T02:07:41.564Z,998.46
2023-03-21T02:08:42.858Z,998.42
2023-03-21T02:10:44.815Z,998.45
2023-03-21T02:11:46.251Z,998.48
2023-03-21T02:13:50.164Z,998.44
2023-03-21T02:14:49.587Z,998.48
2023-03-21T02:16:48.658Z,998.48
2023-03-21T02:17:47.669Z,998.49
2023-03-21T02:19:53.319Z,998.55
2023-03-21T02:20:48.927Z,998.57
2023-03-21T02:22:51.759Z,998.59
2023-03-21T02:23:52.436Z,998.63
2023-03-21T02:25:50.660Z,998.64
2023-03-21T02:26:55.077Z,998.62
2023-03-21T02:28:46.491Z,998.67
2023-03-21T02:29:45.621Z,998.67
2023-03-21T02:31:49.584Z,998.68
2023-03-21T02:32:49.047Z,998.66
2023-03-21T02:34:47.143Z,998.70
2023-03-21T02:35:54.175Z,998.68
2023-03-21T02:36:48.018Z,998.72
2023-03-21T02:37:58.273Z,998.73
2023-03-21T02:38:48.891Z,998.76
2023-03-21T02:39:48.477Z,998.78
2023-03-21T02:40:47.618Z,998.82
2023-03-21T02:41:46.987Z,998.78
2023-03-21T02:42:51.570Z,998.82
2023-03-21T02:43:46.825Z,998.83
2023-03-21T02:44:46.807Z,998.79
2023-03-21T02:45:46.831Z,998.83
2023-03-21T02:46:53.675Z,998.83
2023-03-21T02:47:46.777Z,998.85
2023-03-21T02:48:50.815Z,998.84
2023-03-21T02:49:46.742Z,998.87
2023-03-21T02:50:46.657Z,998.90
2023-03-21T02:51:46.652Z,998.93
2023-03-21T02:52:46.658Z,998.91
2023-03-21T02:53:51.771Z,998.89
2023-03-21T02:54:48.548Z,998.92
2023-03-21T02:55:46.577Z,998.90
2023-03-21T02:56:46.509Z,998.89
2023-03-21T02:57:46.728Z,998.85
2023-03-21T02:58:46.509Z,998.88
2023-03-21T02:59:54.349Z,998.91
2023-03-21T03:00:46.402Z,998.95
2023-03-21T03:01:46.486Z,998.97
2023-03-21T03:02:47.522Z,999.04
2023-03-21T03:03:46.322Z,999.03
2023-03-21T03:04:46.331Z,999.10
2023-03-21T03:05:46.259Z,999.10
2023-03-21T03:06:46.244Z,999.09
2023-03-21T03:07:46.232Z,999.10
2023-03-21T03:08:56.366Z,999.09
2023-03-21T03:09:46.168Z,999.10
2023-03-21T03:10:46.150Z,999.13
2023-03-21T03:11:46.190Z,999.14
2023-03-21T03:12:46.084Z,999.14
2023-03-21T03:13:46.067Z,999.17
2023-03-21T03:15:00.132Z,999.15
2023-03-21T03:15:46.048Z,999.16
2023-03-21T03:16:46.002Z,999.19
2023-03-21T03:17:45.993Z,999.18
2023-03-21T03:18:45.930Z,999.19
2023-03-21T03:19:50.588Z,999.14
2023-03-21T03:20:45.913Z,999.19
2023-03-21T03:21:45.868Z,999.22
2023-03-21T03:22:45.825Z,999.26
2023-03-21T03:23:45.874Z,999.26
2023-03-21T03:24:45.763Z,999.26
2023-03-21T03:25:45.758Z,999.24
2023-03-21T03:26:45.743Z,999.27
2023-03-21T03:27:45.716Z,999.28
2023-03-21T03:28:45.678Z,999.25
2023-03-21T03:29:45.665Z,999.27
2023-03-21T03:30:57.538Z,999.31
2023-03-21T03:31:45.696Z,999.31
2023-03-21T03:32:45.587Z,999.35
2023-03-21T03:33:45.597Z,999.31
2023-03-21T03:34:45.506Z,999.23
2023-03-21T03:35:50.299Z,999.26
2023-03-21T03:36:45.531Z,999.24
2023-03-21T03:37:45.441Z,999.26
2023-03-21T03:38:45.430Z,999.23
2023-03-21T03:39:45.424Z,999.22
2023-03-21T03:40:45.355Z,999.20
2023-03-21T03:42:06.121Z,999.25
2023-03-21T03:42:45.330Z,999.24
2023-03-21T03:43:45.278Z,999.21
2023-03-21T03:44:45.255Z,999.24
2023-03-21T03:45:45.263Z,999.24
2023-03-21T03:46:45.215Z,999.24
2023-03-21T03:47:56.476Z,999.29
2023-03-21T03:48:45.162Z,999.27
2023-03-21T03:49:45.203Z,999.33
2023-03-21T03:50:45.108Z,999.29
2023-03-21T03:51:45.086Z,999.27
2023-03-21T03:52:55.656Z,999.32
2023-03-21T03:53:45.032Z,999.33
2023-03-21T03:54:45.017Z,999.35
2023-03-21T03:55:44.985Z,999.40
2023-03-21T03:56:44.959Z,999.38
2023-03-21T03:57:44.935Z,999.38
2023-03-21T03:58:46.113Z,999.39
2023-03-21T03:59:44.893Z,999.40
2023-03-21T04:00:44.849Z,999.35
2023-03-21T04:01:44.860Z,999.39
2023-03-21T04:02:44.856Z,999.38
2023-03-21T04:03:51.715Z,999.35
2023-03-21T04:04:44.826Z,999.39
2023-03-21T04:05:44.722Z,999.35
2023-03-21T04:06:44.722Z,999.35
2023-03-21T04:07:44.686Z,999.38
2023-03-21T04:08:44.689Z,999.42
2023-03-21T04:09:45.273Z,999.46
2023-03-21T04:10:44.612Z,999.44
2023-03-21T04:11:44.606Z,999.43
2023-03-21T04:12:44.632Z,999.48
2023-03-21T04:13:44.539Z,999.49
2023-03-21T04:14:46.967Z,999.50
2023-03-21T04:15:44.463Z,999.49
2023-03-21T04:16:44.452Z,999.55
2023-03-21T04:17:44.434Z,999.51
2023-03-21T04:18:44.406Z,999.49
2023-03-21T04:19:44.360Z,999.54
2023-03-21T04:20:44.825Z,999.52
2023-03-21T04:21:44.309Z,999.51
2023-03-21T04:22:44.297Z,999.54
2023-03-21T04:23:44.315Z,999.51
2023-03-21T04:24:44.274Z,999.56
2023-03-21T04:25:55.537Z,999.56
2023-03-21T04:26:44.191Z,999.57
2023-03-21T04:27:44.176Z,999.56
2023-03-21T04:28:44.136Z,999.58
2023-03-21T04:29:44.117Z,999.59
2023-03-21T04:30:58.603Z,999.60
2023-03-21T04:31:44.088Z,999.61
2023-03-21T04:32:44.037Z,999.62
2023-03-21T04:33:44.016Z,999.65
2023-03-21T04:34:43.981Z,999.66
2023-03-21T04:35:43.967Z,999.68
2023-03-21T04:36:43.965Z,999.59
2023-03-21T04:37:43.902Z,999.66
2023-03-21T04:38:43.891Z,999.69
2023-03-21T04:39:43.901Z,999.71
2023-03-21T04:40:43.844Z,999.66
2023-03-21T04:41:43.806Z,999.67
2023-03-21T04:42:43.799Z,999.66
2023-03-21T04:43:43.743Z,999.64
2023-03-21T04:44:43.724Z,999.60
2023-03-21T04:45:43.758Z,999.62
2023-03-21T04:46:43.717Z,999.65
2023-03-21T04:47:43.680Z,999.63
2023-03-21T04:48:43.629Z,999.64
2023-03-21T04:49:43.641Z,999.66
2023-03-21T04:50:43.573Z,999.65
2023-03-21T04:51:43.548Z,999.63
2023-03-21T04:52:43.520Z,999.61
2023-03-21T04:53:43.485Z,999.64
2023-03-21T04:54:43.491Z,999.64
2023-03-21T04:55:43.470Z,999.60
2023-03-21T04:56:43.412Z,999.64
2023-03-21T04:57:43.386Z,999.62
2023-03-21T04:58:43.383Z,999.59
2023-03-21T04:59:43.338Z,999.59
2023-03-21T05:00:43.404Z,999.58
2023-03-21T05:01:43.315Z,999.59
2023-03-21T05:02:43.274Z,999.64
2023-03-21T05:03:43.259Z,999.63
2023-03-21T05:04:43.216Z,999.67
2023-03-21T05:05:43.232Z,999.68
2023-03-21T05:06:43.203Z,999.67
2023-03-21T05:07:43.143Z,999.71
2023-03-21T05:08:43.110Z,999.68
2023-03-21T05:09:43.093Z,999.68
2023-03-21T05:10:43.065Z,999.69
2023-03-21T05:11:43.044Z,999.73
2023-03-21T05:12:42.997Z,999.72
2023-03-21T05:13:42.965Z,999.72
2023-03-21T05:14:42.995Z,999.76
2023-03-21T05:15:42.912Z,999.77
2023-03-21T05:16:43.000Z,999.78
2023-03-21T05:17:42.903Z,999.77
2023-03-21T05:18:42.866Z,999.86
2023-03-21T05:19:42.818Z,999.85
2023-03-21T05:20:42.829Z,999.85
2023-03-21T05:21:42.769Z,999.88
2023-03-21T05:22:42.743Z,999.86
2023-03-21T05:23:42.740Z,999.87
2023-03-21T05:24:42.714Z,999.86
2023-03-21T05:25:42.668Z,999.84
2023-03-21T05:26:42.665Z,999.88
2023-03-21T05:27:42.609Z,999.90
2023-03-21T05:28:42.594Z,999.90
2023-03-21T05:29:42.550Z,999.88
2023-03-21T05:30:42.586Z,999.87
2023-03-21T05:31:42.541Z,999.90
2023-03-21T05:32:42.489Z,999.87
2023-03-21T05:33:42.467Z,999.85
2023-03-21T05:34:42.422Z,999.86
2023-03-21T05:35:42.450Z,999.81
2023-03-21T05:36:42.403Z,999.85
2023-03-21T05:37:42.339Z,999.85
2023-03-21T05:38:42.345Z,999.86
2023-03-21T05:39:42.293Z,999.85
2023-03-21T05:40:42.262Z,999.88
2023-03-21T05:41:42.235Z,999.87
2023-03-21T05:42:42.253Z,999.89
2023-03-21T05:43:42.183Z,999.89
2023-03-21T05:44:42.164Z,999.93
2023-03-21T05:45:42.145Z,999.88
2023-03-21T05:46:42.128Z,999.92
2023-03-21T05:47:42.132Z,999.93
2023-03-21T05:48:42.104Z,999.97
2023-03-21T05:49:42.042Z,1000.01
2023-03-21T05:50:42.028Z,1000.01
2023-03-21T05:51:42.010Z,1000.02
2023-03-21T05:52:41.970Z,1000.02
2023-03-21T05:53:41.925Z,1000.03
2023-03-21T05:54:41.956Z,1000.00
2023-03-21T05:55:41.896Z,1000.02
2023-03-21T05:56:41.855Z,1000.08
2023-03-21T05:57:41.836Z,1000.06
2023-03-21T05:58:41.849Z,1000.09
2023-03-21T05:59:54.837Z,1000.08
2023-03-21T06:01:48.647Z,1000.11
2023-03-21T06:04:25.921Z,1000.16
2023-03-21T06:05:10.686Z,1000.17
2023-03-21T06:06:08.357Z,1000.11
2023-03-21T06:07:07.849Z,1000.14
2023-03-21T06:08:06.845Z,1000.19
2023-03-21T06:09:08.303Z,1000.14
2023-03-21T06:10:08.157Z,1000.08
2023-03-21T06:11:07.982Z,1000.08
2023-03-21T06:12:07.764Z,1000.08
2023-03-21T06:13:08.246Z,1000.09
2023-03-21T06:14:07.984Z,1000.11
2023-03-21T06:15:08.735Z,1000.08
2023-03-21T06:16:09.766Z,1000.14
2023-03-21T06:17:07.947Z,1000.10
2023-03-21T06:18:08.638Z,1000.11
2023-03-21T06:19:24.086Z,1000.12
2023-03-21T06:21:09.938Z,1000.17
2023-03-21T06:22:10.844Z,1000.18
2023-03-21T06:24:08.328Z,1000.17
2023-03-21T06:25:07.695Z,1000.17
2023-03-21T06:27:12.976Z,1000.19
2023-03-21T06:28:12.751Z,1000.14
2023-03-21T06:30:11.792Z,1000.24
2023-03-21T06:31:10.343Z,1000.27
2023-03-21T06:33:15.576Z,1000.31
2023-03-21T06:34:14.536Z,1000.32
2023-03-21T06:36:21.402Z,1000.30
2023-03-21T06:37:19.953Z,1000.32
2023-03-21T06:39:22.404Z,1000.30
2023-03-21T06:40:23.173Z,1000.31
2023-03-21T06:42:24.141Z,1000.34
2023-03-21T06:43:23.829Z,1000.36
2023-03-21T06:45:19.422Z,1000.39
2023-03-21T06:46:18.641Z,1000.33
2023-03-21T06:48:21.611Z,1000.30
2023-03-21T06:49:22.980Z,1000.28
2023-03-21T06:51:26.962Z,1000.33
2023-03-21T06:52:26.276Z,1000.33
2023-03-21T06:54:30.859Z,1000.33
2023-03-21T06:55:30.115Z,1000.31
2023-03-21T06:57:27.652Z,1000.31
2023-03-21T06:58:28.467Z,1000.32
2023-03-21T06:59:27.497Z,1000.36
2023-03-21T07:00:28.327Z,1000.34
2023-03-21T07:01:27.225Z,1000.34
2023-03-21T07:02:29.655Z,1000.31
2023-03-21T07:03:27.223Z,1000.35
2023-03-21T07:04:27.520Z,1000.38
2023-03-21T07:05:27.083Z,1000.37
2023-03-21T07:06:27.478Z,1000.36
2023-03-21T07:07:26.401Z,1000.38
2023-03-21T07:08:25.910Z,1000.36
2023-03-21T07:09:25.954Z,1000.38
2023-03-21T07:10:25.847Z,1000.42
2023-03-21T07:11:25.857Z,1000.42
2023-03-21T07:12:25.820Z,1000.44
2023-03-21T07:13:25.829Z,1000.42
2023-03-21T07:14:25.734Z,1000.42
2023-03-21T07:15:25.719Z,1000.43
2023-03-21T07:16:25.705Z,1000.45
2023-03-21T07:17:25.666Z,1000.43
2023-03-21T07:18:25.657Z,1000.43
2023-03-21T07:19:25.657Z,1000.43
2023-03-21T07:20:25.577Z,1000.47
2023-03-21T07:21:25.567Z,1000.46
2023-03-21T07:22:25.558Z,1000.44
2023-03-21T07:23:25.524Z,1000.44
2023-03-21T07:24:25.481Z,1000.45
2023-03-21T07:25:25.537Z,1000.47
2023-03-21T07:26:25.449Z,1000.49
2023-03-21T07:27:25.412Z,1000.49
2023-03-21T07:28:25.419Z,1000.49
2023-03-21T07:29:25.425Z,1000.47
2023-03-21T07:30:25.344Z,1000.44
2023-03-21T07:31:25.352Z,1000.47
2023-03-21T07:32:25.290Z,1000.44
2023-03-21T07:33:25.290Z,1000.44
2023-03-21T07:34:25.239Z,1000.43
2023-03-21T07:35:25.250Z,1000.40
2023-03-21T07:36:25.175Z,1000.39
2023-03-21T07:37:25.174Z,1000.45
2023-03-21T07:38:25.160Z,1000.42
2023-03-21T07:39:25.467Z,1000.46
2023-03-21T07:40:25.829Z,1000.41
2023-03-21T07:41:25.085Z,1000.46
2023-03-21T07:42:25.083Z,1000.50
2023-03-21T07:43:25.007Z,1000.45
2023-03-21T07:44:25.011Z,1000.50
2023-03-21T07:45:24.962Z,1000.49
2023-03-21T07:46:24.948Z,1000.50
2023-03-21T07:47:24.922Z,1000.52
2023-03-21T07:48:24.919Z,1000.53
2023-03-21T07:49:24.858Z,1000.56
2023-03-21T07:50:24.848Z,1000.56
2023-03-21T07:51:24.852Z,1000.56
2023-03-21T07:52:24.777Z,1000.60
2023-03-21T07:53:24.766Z,1000.64
2023-03-21T07:54:24.767Z,1000.62
2023-03-21T07:55:24.773Z,1000.64
2023-03-21T07:56:24.679Z,1000.64
2023-03-21T07:57:24.670Z,1000.66
2023-03-21T07:58:24.681Z,1000.65
2023-03-21T07:59:24.625Z,1000.65
2023-03-21T08:00:24.586Z,1000.67
2023-03-21T08:01:24.596Z,1000.67
2023-03-21T08:02:24.609Z,1000.66
2023-03-21T08:03:24.582Z,1000.65
2023-03-21T08:04:24.587Z,1000.73
2023-03-21T08:05:24.482Z,1000.71
2023-03-21T08:06:24.614Z,1000.70
2023-03-21T08:07:24.427Z,1000.75
2023-03-21T08:08:24.445Z,1000.73
2023-03-21T08:09:24.379Z,1000.73
2023-03-21T08:10:24.432Z,1000.73
2023-03-21T08:11:24.373Z,1000.72
2023-03-21T08:12:24.280Z,1000.71
2023-03-21T08:13:24.298Z,1000.72
2023-03-21T08:14:24.233Z,1000.75
2023-03-21T08:15:46.869Z,1000.77
2023-03-21T08:17:27.279Z,1000.72
2023-03-21T08:18:25.541Z,1000.74
2023-03-21T08:20:26.654Z,1000.75
2023-03-21T08:21:26.388Z,1000.78
2023-03-21T08:22:27.341Z,1000.76
2023-03-21T08:23:27.813Z,1000.74
2023-03-21T08:24:26.022Z,1000.76
2023-03-21T08:25:26.391Z,1000.80
2023-03-21T08:26:27.327Z,1000.77
2023-03-21T08:27:26.925Z,1000.81
2023-03-21T08:28:28.071Z,1000.79
2023-03-21T08:29:27.336Z,1000.83
2023-03-21T08:30:27.045Z,1000.76
2023-03-21T08:31:26.462Z,1000.76
2023-03-21T08:32:25.889Z,1000.79
2023-03-21T08:33:25.832Z,1000.78
2023-03-21T08:34:25.777Z,1000.78
2023-03-21T08:35:25.776Z,1000.83
2023-03-21T08:36:25.776Z,1000.84
2023-03-21T08:37:25.700Z,1000.83
2023-03-21T08:38:25.678Z,1000.83
2023-03-21T08:39:25.754Z,1000.83
2023-03-21T08:40:25.643Z,1000.86
2023-03-21T08:41:25.590Z,1000.88
2023-03-21T08:42:25.585Z,1000.90
2023-03-21T08:43:25.560Z,1000.92
2023-03-21T08:44:25.524Z,1000.96
2023-03-21T08:45:25.516Z,1000.93
2023-03-21T08:46:25.549Z,1000.92
2023-03-21T08:47:25.517Z,1000.91
2023-03-21T08:48:25.499Z,1000.96
2023-03-21T08:49:25.446Z,1000.95
2023-03-21T08:50:25.511Z,1000.91
2023-03-21T08:51:25.417Z,1000.93
2023-03-21T08:52:25.370Z,1000.93
2023-03-21T08:53:25.377Z,1000.89
2023-03-21T08:54:25.369Z,1000.94
2023-03-21T08:55:25.303Z,1000.90
2023-03-21T08:56:25.277Z,1000.94
2023-03-21T08:57:25.199Z,1000.95
2023-03-21T08:58:25.229Z,1000.98
2023-03-21T08:59:25.194Z,1000.98
2023-03-21T09:00:25.129Z,1000.98
2023-03-21T09:01:25.197Z,1001.00
2023-03-21T09:02:25.143Z,1000.99
2023-03-21T09:03:25.136Z,1000.98
2023-03-21T09:04:25.108Z,1000.95
2023-03-21T09:05:25.027Z,1000.97
2023-03-21T09:06:25.061Z,1000.98
2023-03-21T09:07:25.046Z,1000.98
2023-03-21T09:08:24.959Z,1000.95
2023-03-21T09:09:25.060Z,1000.90
2023-03-21T09:10:25.012Z,1000.88
2023-03-21T09:11:24.976Z,1000.89
2023-03-21T09:12:24.874Z,1000.94
2023-03-21T09:13:24.934Z,1000.92
2023-03-21T09:14:28.591Z,1000.94
2023-03-21T09:15:25.072Z,1000.98
2023-03-21T09:16:24.832Z,1000.96
2023-03-21T09:17:24.803Z,1000.99
2023-03-21T09:18:24.723Z,1000.95
2023-03-21T09:19:24.724Z,1000.97
2023-03-21T09:20:24.706Z,1001.01
2023-03-21T09:21:24.646Z,1000.96
2023-03-21T09:22:24.633Z,1000.97
2023-03-21T09:23:24.642Z,1000.99
2023-03-21T09:24:24.671Z,1000.98
2023-03-21T09:25:24.559Z,1001.02
2023-03-21T09:26:24.614Z,1000.98
2023-03-21T09:27:24.561Z,1000.98
2023-03-21T09:28:24.522Z,1000.97
2023-03-21T09:29:24.468Z,1000.99
2023-03-21T09:30:26.341Z,1000.99
2023-03-21T09:31:24.508Z,1000.97
2023-03-21T09:32:24.416Z,1000.99
2023-03-21T09:33:24.400Z,1000.97
2023-03-21T09:34:24.393Z,1000.97
2023-03-21T09:35:24.411Z,1000.94
2023-03-21T09:36:24.396Z,1000.99
2023-03-21T09:37:24.319Z,1001.01
2023-03-21T09:38:24.266Z,1000.99
2023-03-21T09:39:24.256Z,1000.99
2023-03-21T09:40:24.249Z,1000.98
2023-03-21T09:41:24.255Z,1001.00
2023-03-21T09:42:24.190Z,1000.99
2023-03-21T09:43:24.180Z,1000.98
2023-03-21T09:44:24.166Z,1000.95
2023-03-21T09:45:24.109Z,1000.98
2023-03-21T09:46:24.128Z,1000.98
2023-03-21T09:47:24.097Z,1001.01
2023-03-21T09:48:24.115Z,1001.03
2023-03-21T09:49:24.025Z,1001.04
2023-03-21T09:50:24.045Z,1000.99
2023-03-21T09:51:23.990Z,1000.99
2023-03-21T09:52:23.989Z,1000.97
2023-03-21T09:53:23.943Z,1000.99
2023-03-21T09:54:23.922Z,1001.00
2023-03-21T09:55:23.914Z,1000.99
2023-03-21T09:56:23.882Z,1001.01
2023-03-21T09:57:23.854Z,1001.01
2023-03-21T09:58:23.858Z,1001.02
2023-03-21T09:59:23.838Z,1000.96
2023-03-21T10:00:23.790Z,1000.99
2023-03-21T10:01:23.768Z,1000.97
2023-03-21T10:02:23.760Z,1001.02
2023-03-21T10:03:23.727Z,1001.01
2023-03-21T10:04:23.778Z,1001.05
2023-03-21T10:05:23.692Z,1000.99
2023-03-21T10:06:23.686Z,1000.99
2023-03-21T10:07:23.640Z,1000.99
2023-03-21T10:08:23.619Z,1000.96
2023-03-21T10:09:23.611Z,1000.95
2023-03-21T10:10:23.599Z,1000.93
2023-03-21T10:11:23.799Z,1000.97
2023-03-21T10:12:23.542Z,1000.95
2023-03-21T10:13:23.538Z,1000.98
2023-03-21T10:14:24.133Z,1001.01
2023-03-21T10:15:23.490Z,1000.97
2023-03-21T10:16:23.509Z,1000.99
2023-03-21T10:17:23.462Z,1001.00
2023-03-21T10:18:23.466Z,1000.99
2023-03-21T10:19:23.397Z,1000.95
2023-03-21T10:20:23.412Z,1000.96
2023-03-21T10:21:48.030Z,1000.94
2023-03-21T10:22:23.341Z,1000.97
2023-03-21T10:23:23.309Z,1000.98
2023-03-21T10:24:23.302Z,1000.96
2023-03-21T10:25:23.313Z,1000.96
2023-03-21T10:26:23.328Z,1000.95
2023-03-21T10:27:23.217Z,1000.98
2023-03-21T10:28:23.232Z,1000.96
2023-03-21T10:29:23.173Z,1000.93
2023-03-21T10:30:23.166Z,1000.92
2023-03-21T10:31:23.200Z,1000.91
2023-03-21T10:32:23.125Z,1000.94
2023-03-21T10:33:23.245Z,1000.96
2023-03-21T10:34:23.264Z,1000.98
2023-03-21T10:35:23.067Z,1000.98
2023-03-21T10:36:23.084Z,1000.98
2023-03-21T10:37:23.014Z,1001.02
2023-03-21T10:38:23.025Z,1001.00
2023-03-21T10:39:23.001Z,1000.95
2023-03-21T10:40:22.982Z,1000.98
2023-03-21T10:41:22.957Z,1000.96
2023-03-21T10:42:22.927Z,1000.91
2023-03-21T10:43:22.913Z,1000.93
2023-03-21T10:44:22.935Z,1000.96
2023-03-21T10:45:22.933Z,1000.94
2023-03-21T10:46:23.010Z,1000.95
2023-03-21T10:47:23.232Z,1000.97
2023-03-21T10:48:22.910Z,1000.96
2023-03-21T10:49:22.771Z,1000.95
2023-03-21T10:50:22.771Z,1000.96
2023-03-21T10:51:22.798Z,1000.93
2023-03-21T10:52:22.728Z,1000.91
2023-03-21T10:53:22.703Z,1000.90
2023-03-21T10:54:22.678Z,1000.87
2023-03-21T10:55:22.743Z,1000.93
2023-03-21T10:56:22.676Z,1000.93
2023-03-21T10:57:22.620Z,1000.94
2023-03-21T10:58:22.600Z,1000.95
2023-03-21T10:59:22.601Z,1000.93
2023-03-21T11:00:22.556Z,1000.95
2023-03-21T11:01:22.584Z,1000.93
2023-03-21T11:02:22.559Z,1000.96
2023-03-21T11:03:22.538Z,1000.97
2023-03-21T11:04:22.512Z,1000.91
2023-03-21T11:05:22.464Z,1000.86
2023-03-21T11:06:22.459Z,1000.90
2023-03-21T11:07:22.426Z,1000.90
2023-03-21T11:08:22.438Z,1000.90
2023-03-21T11:09:22.368Z,1000.93
2023-03-21T11:10:28.607Z,1000.90
2023-03-21T11:11:22.328Z,1000.87
2023-03-21T11:12:22.391Z,1000.96
2023-03-21T11:13:22.294Z,1000.94
2023-03-21T11:14:22.302Z,1000.94
2023-03-21T11:15:22.255Z,1000.93
2023-03-21T11:16:22.252Z,1000.92
2023-03-21T11:17:22.233Z,1000.91
2023-03-21T11:18:22.206Z,1000.93
2023-03-21T11:19:22.219Z,1000.94
2023-03-21T11:20:22.172Z,1000.93
2023-03-21T11:21:22.157Z,1000.91
2023-03-21T11:22:22.153Z,1000.90
2023-03-21T11:23:22.163Z,1000.92
2023-03-21T11:24:22.075Z,1000.87
2023-03-21T11:25:22.074Z,1000.88
2023-03-21T11:26:22.056Z,1000.90
2023-03-21T11:27:22.013Z,1000.84
2023-03-21T11:28:22.003Z,1000.89
2023-03-21T11:29:21.983Z,1000.92
2023-03-21T11:30:21.988Z,1000.87
2023-03-21T11:31:22.034Z,1000.89
2023-03-21T11:32:21.914Z,1000.86
2023-03-21T11:33:21.900Z,1000.84
2023-03-21T11:34:21.906Z,1000.85
2023-03-21T11:35:21.859Z,1000.82
2023-03-21T11:36:21.926Z,1000.85
2023-03-21T11:37:21.841Z,1000.83
2023-03-21T11:38:21.823Z,1000.83
2023-03-21T11:39:21.786Z,1000.86
2023-03-21T11:40:21.769Z,1000.81
2023-03-21T11:41:21.761Z,1000.87
2023-03-21T11:42:21.758Z,1000.83
2023-03-21T11:43:21.695Z,1000.89
2023-03-21T11:44:33.426Z,1000.85
2023-03-21T11:46:16.313Z,1000.84
2023-03-21T11:47:18.249Z,1000.82
2023-03-21T11:49:12.099Z,1000.85
2023-03-21T11:50:12.513Z,1000.81
2023-03-21T11:52:18.544Z,1000.82
2023-03-21T11:53:18.849Z,1000.77
2023-03-21T11:54:18.446Z,1000.82
2023-03-21T11:55:18.028Z,1000.77
2023-03-21T11:56:17.992Z,1000.79
2023-03-21T11:57:17.992Z,1000.79
2023-03-21T11:58:18.010Z,1000.75
2023-03-21T11:59:17.930Z,1000.82
2023-03-21T12:00:17.911Z,1000.81
2023-03-21T12:01:17.964Z,1000.77
2023-03-21T12:02:17.975Z,1000.69
2023-03-21T12:03:17.855Z,1000.77
2023-03-21T12:04:17.960Z,1000.72
2023-03-21T12:05:18.102Z,1000.77
2023-03-21T12:06:18.250Z,1000.70
2023-03-21T12:07:18.383Z,1000.73
2023-03-21T12:08:18.521Z,1000.72
2023-03-21T12:09:18.799Z,1000.74
2023-03-21T12:10:17.744Z,1000.76
2023-03-21T12:11:17.682Z,1000.73
2023-03-21T12:12:22.008Z,1000.66
2023-03-21T12:13:17.652Z,1000.69
2023-03-21T12:14:17.683Z,1000.71
2023-03-21T12:15:17.672Z,1000.65
2023-03-21T12:16:17.644Z,1000.65
2023-03-21T12:17:17.615Z,1000.66
2023-03-21T12:18:17.549Z,1000.71
2023-03-21T12:19:17.651Z,1000.66
2023-03-21T12:20:17.542Z,1000.65
2023-03-21T12:21:17.505Z,1000.65
2023-03-21T12:22:17.628Z,1000.61
2023-03-21T12:23:17.754Z,1000.64
2023-03-21T12:24:17.894Z,1000.61
2023-03-21T12:25:18.023Z,1000.68
2023-03-21T12:26:18.153Z,1000.62
2023-03-21T12:27:18.362Z,1000.57
2023-03-21T12:28:26.898Z,1000.56
2023-03-21T12:29:17.404Z,1000.55
2023-03-21T12:30:17.482Z,1000.61
2023-03-21T12:31:39.525Z,1000.54
2023-03-21T12:32:17.280Z,1000.56
2023-03-21T12:33:17.271Z,1000.54
2023-03-21T12:34:17.336Z,1000.57
2023-03-21T12:35:17.216Z,1000.57
2023-03-21T12:36:17.213Z,1000.58
2023-03-21T12:37:17.209Z,1000.54
2023-03-21T12:38:17.208Z,1000.51
2023-03-21T12:39:17.130Z,1000.52
2023-03-21T12:40:17.191Z,1000.53
2023-03-21T12:41:17.230Z,1000.48
2023-03-21T12:42:17.376Z,1000.51
2023-03-21T12:43:17.595Z,1000.52
2023-03-21T12:44:17.923Z,1000.50
2023-03-21T12:45:17.784Z,1000.46
2023-03-21T12:46:17.991Z,1000.51
2023-03-21T12:47:16.984Z,1000.50
2023-03-21T12:48:17.096Z,1000.53
2023-03-21T12:49:16.962Z,1000.47
2023-03-21T12:50:16.922Z,1000.53
2023-03-21T12:51:17.045Z,1000.49
2023-03-21T12:52:17.339Z,1000.50
2023-03-21T12:53:16.990Z,1000.50